createdAt,value
2018-11-23T00:01:30.903Z,78144.12
2018-11-23T00:03:58.785Z,78146.13
2018-11-23T00:06:25.618Z,78138.11
2018-11-23T00:08:53.428Z,78139.11
2018-11-23T00:11:21.069Z,78136.11
2018-11-23T00:13:48.932Z,78137.11
2018-11-23T00:16:16.813Z,78139.11
2018-11-23T00:18:44.450Z,78140.11
2018-11-23T00:21:11.295Z,78139.11
2018-11-23T00:23:38.161Z,78130.10
2018-11-23T00:26:04.987Z,78130.10
2018-11-23T00:28:31.877Z,78130.10
2018-11-23T00:30:59.632Z,78139.11
2018-11-23T00:33:27.412Z,78137.11
2018-11-23T00:35:54.255Z,78135.11
2018-11-23T00:38:21.911Z,78134.11
2018-11-23T00:40:48.829Z,78134.11
2018-11-23T00:43:16.358Z,78131.10
2018-11-23T00:45:44.135Z,78130.10
2018-11-23T00:48:11.788Z,78128.09
2018-11-23T00:50:38.621Z,78125.09
2018-11-23T00:53:06.224Z,78126.09
2018-11-23T00:55:33.992Z,78130.10
2018-11-23T00:58:00.836Z,78126.09
2018-11-23T01:00:34.766Z,78126.09
2018-11-23T01:03:02.584Z,78128.09
2018-11-23T01:05:29.440Z,78129.10
2018-11-23T01:07:56.269Z,78132.11
2018-11-23T01:10:24.107Z,78124.09
2018-11-23T01:12:52.090Z,78122.09
2018-11-23T01:15:18.896Z,78121.09
2018-11-23T01:17:47.633Z,78117.09
2018-11-23T01:20:16.665Z,78114.08
2018-11-23T01:22:44.098Z,78115.09
2018-11-23T01:25:12.365Z,78121.09
2018-11-23T01:27:40.909Z,78121.09
2018-11-23T01:30:09.143Z,78110.08
2018-11-23T01:32:36.007Z,78116.09
2018-11-23T01:35:02.907Z,78114.08
2018-11-23T01:37:30.685Z,78116.09
2018-11-23T01:39:58.327Z,78118.09
2018-11-23T01:42:26.229Z,78117.09
2018-11-23T01:44:53.846Z,78109.08
2018-11-23T01:47:22.158Z,78107.08
2018-11-23T01:49:49.031Z,78104.07
2018-11-23T01:52:16.711Z,78100.06
2018-11-23T01:54:43.657Z,78106.08
2018-11-23T01:57:11.341Z,78100.06
2018-11-23T01:59:39.039Z,78097.06
2018-11-23T02:02:07.025Z,78094.06
2018-11-23T02:04:34.800Z,78095.06
2018-11-23T02:07:02.575Z,78091.06
2018-11-23T02:09:29.425Z,78094.06
2018-11-23T02:11:57.291Z,78100.06
2018-11-23T02:14:24.111Z,78099.06
2018-11-23T02:16:50.968Z,78092.06
2018-11-23T02:19:19.135Z,78094.06
2018-11-23T02:21:47.073Z,78086.05
2018-11-23T02:24:13.911Z,78092.06
2018-11-23T02:26:41.701Z,78093.06
2018-11-23T02:29:09.554Z,78093.06
2018-11-23T02:31:37.830Z,78085.05
2018-11-23T02:34:05.529Z,78081.05
2018-11-23T02:36:32.354Z,78079.05
2018-11-23T02:39:00.053Z,78085.05
2018-11-23T02:41:27.767Z,78084.05
2018-11-23T02:43:54.698Z,78082.05
2018-11-23T02:46:22.537Z,78078.05
2018-11-23T02:48:49.355Z,78078.05
2018-11-23T02:51:16.960Z,78072.03
2018-11-23T02:53:45.526Z,78066.03
2018-11-23T02:56:13.200Z,78065.03
2018-11-23T02:58:40.985Z,78072.03
2018-11-23T03:01:08.697Z,78072.03
2018-11-23T03:03:36.397Z,78071.03
2018-11-23T03:06:04.141Z,78064.02
2018-11-23T03:08:32.027Z,78062.02
2018-11-23T03:11:06.673Z,78059.02
2018-11-23T03:13:33.541Z,78056.02
2018-11-23T03:19:23.767Z,78065.03
2018-11-23T03:21:51.509Z,78064.02
2018-11-23T03:24:18.350Z,78062.02
2018-11-23T03:26:45.683Z,78059.02
2018-11-23T03:29:13.503Z,78060.02
2018-11-23T03:34:49.833Z,78070.03
2018-11-23T03:37:17.816Z,78062.02
2018-11-23T03:39:45.737Z,78059.02
2018-11-23T03:44:55.006Z,78054.02
2018-11-23T03:47:21.875Z,78050.01
2018-11-23T03:49:48.716Z,78056.02
2018-11-23T03:52:16.248Z,78059.02
2018-11-23T03:54:43.087Z,78056.02
2018-11-23T03:57:09.945Z,78052.02
2018-11-23T03:59:37.767Z,78050.01
2018-11-23T04:02:05.604Z,78050.01
2018-11-23T04:04:32.429Z,78056.02
2018-11-23T04:06:59.287Z,78058.02
2018-11-23T04:09:26.112Z,78062.02
2018-11-23T04:11:52.954Z,78052.02
2018-11-23T04:14:20.675Z,78054.02
2018-11-23T04:16:47.513Z,78053.02
2018-11-23T04:19:15.998Z,78054.02
2018-11-23T04:21:42.853Z,78057.02
2018-11-23T04:24:09.692Z,78055.02
2018-11-23T04:26:37.358Z,78052.02
2018-11-23T04:29:05.211Z,78056.02
2018-11-23T04:31:33.015Z,78055.02
2018-11-23T04:34:00.970Z,78054.02
2018-11-23T04:36:28.603Z,78062.02
2018-11-23T04:38:55.484Z,78062.02
2018-11-23T04:41:22.313Z,78057.02
2018-11-23T04:43:50.253Z,78061.02
2018-11-23T04:46:17.247Z,78057.02
2018-11-23T04:48:44.064Z,78056.02
2018-11-23T04:51:10.908Z,78061.02
2018-11-23T04:53:37.745Z,78057.02
2018-11-23T04:56:05.517Z,78060.02
2018-11-23T04:58:33.177Z,78058.02
2018-11-23T05:01:00.062Z,78059.02
2018-11-23T05:03:26.922Z,78056.02
2018-11-23T05:05:53.793Z,78052.02
2018-11-23T05:08:20.634Z,78054.02
2018-11-23T05:10:48.379Z,78055.02
2018-11-23T05:13:16.117Z,78046.00
2018-11-23T05:15:42.949Z,78046.00
2018-11-23T05:18:09.772Z,78045.00
2018-11-23T05:20:36.592Z,78040.00
2018-11-23T05:23:03.448Z,78042.00
2018-11-23T05:25:30.256Z,78040.00
2018-11-23T05:27:57.131Z,78047.00
2018-11-23T05:30:23.988Z,78045.00
2018-11-23T05:32:50.899Z,78044.00
2018-11-23T05:35:18.968Z,78046.00
2018-11-23T05:37:47.230Z,78049.01
2018-11-23T05:40:16.708Z,78048.00
2018-11-23T05:42:44.530Z,78052.02
2018-11-23T05:45:14.072Z,78054.02
2018-11-23T05:47:40.941Z,78046.00
2018-11-23T05:50:10.188Z,78044.00
2018-11-23T05:52:37.862Z,78038.00
2018-11-23T05:55:05.312Z,78039.00
2018-11-23T05:57:33.015Z,78042.00
2018-11-23T06:00:00.887Z,78042.00
2018-11-23T06:02:27.827Z,78046.00
2018-11-23T06:04:55.541Z,78040.00
2018-11-23T06:07:22.863Z,78038.00
2018-11-23T06:09:49.673Z,78039.00
2018-11-23T06:12:17.090Z,78047.00
2018-11-23T06:14:43.913Z,78046.00
2018-11-23T06:17:10.794Z,78048.00
2018-11-23T06:19:37.644Z,78049.01
2018-11-23T06:22:04.901Z,78048.00
2018-11-23T06:24:32.191Z,78044.00
2018-11-23T06:26:59.752Z,78048.00
2018-11-23T06:29:27.387Z,78051.01
2018-11-23T06:31:54.231Z,78055.02
2018-11-23T06:34:21.898Z,78048.00
2018-11-23T06:36:49.563Z,78051.01
2018-11-23T06:39:17.232Z,78058.02
2018-11-23T06:41:45.942Z,78056.02
2018-11-23T06:44:12.770Z,78050.01
2018-11-23T06:46:39.684Z,78048.00
2018-11-23T06:49:07.397Z,78048.00
2018-11-23T06:51:34.321Z,78044.00
2018-11-23T06:54:01.867Z,78040.00
2018-11-23T06:56:28.702Z,78044.00
2018-11-23T06:58:56.529Z,78045.00
2018-11-23T07:01:24.172Z,78042.00
2018-11-23T07:03:51.919Z,78042.00
2018-11-23T07:06:19.684Z,78040.00
2018-11-23T07:08:52.375Z,78041.00
2018-11-23T07:11:15.946Z,78038.00
2018-11-23T07:13:43.624Z,78045.00
2018-11-23T07:16:11.423Z,78041.00
2018-11-23T07:18:39.053Z,78033.98
2018-11-23T07:21:06.905Z,78034.99
2018-11-23T07:23:34.625Z,78040.00
2018-11-23T07:26:02.425Z,78040.00
2018-11-23T07:28:29.733Z,78044.00
2018-11-23T07:31:02.150Z,78038.00
2018-11-23T07:33:23.657Z,78040.00
2018-11-23T07:35:50.626Z,78040.00
2018-11-23T07:38:18.402Z,78035.99
2018-11-23T07:40:51.678Z,78042.00
2018-11-23T07:43:18.520Z,78042.00
2018-11-23T07:45:46.353Z,78045.00
2018-11-23T07:48:13.277Z,78049.01
2018-11-23T07:50:40.224Z,78045.00
2018-11-23T07:53:07.345Z,78049.01
2018-11-23T07:55:35.208Z,78050.01
2018-11-23T07:58:03.183Z,78056.02
2018-11-23T08:00:30.088Z,78056.02
2018-11-23T08:02:56.933Z,78046.00
2018-11-23T08:05:23.973Z,78046.00
2018-11-23T08:07:50.788Z,78050.01
2018-11-23T08:10:17.188Z,78052.02
2018-11-23T08:12:46.102Z,78051.01
2018-11-23T08:15:15.701Z,78056.02
2018-11-23T08:17:42.863Z,78050.01
2018-11-23T08:20:11.397Z,78054.02
2018-11-23T08:22:38.638Z,78048.00
2018-11-23T08:25:05.917Z,78047.00
2018-11-23T08:27:32.757Z,78052.02
2018-11-23T08:30:00.511Z,78050.01
2018-11-23T08:32:27.860Z,78045.00
2018-11-23T08:34:54.696Z,78044.00
2018-11-23T08:37:21.537Z,78035.99
2018-11-23T08:39:48.378Z,78033.98
2018-11-23T08:42:16.104Z,78036.99
2018-11-23T08:44:43.897Z,78033.98
2018-11-23T08:47:10.727Z,78040.00
2018-11-23T08:49:37.563Z,78038.00
2018-11-23T08:52:04.496Z,78031.98
2018-11-23T08:54:31.856Z,78034.99
2018-11-23T08:56:58.753Z,78030.98
2018-11-23T08:59:26.718Z,78027.98
2018-11-23T09:01:53.607Z,78031.98
2018-11-23T09:04:21.250Z,78032.98
2018-11-23T09:06:48.058Z,78032.98
2018-11-23T09:09:15.872Z,78027.98
2018-11-23T09:11:42.705Z,78025.98
2018-11-23T09:14:10.269Z,78029.98
2018-11-23T09:16:37.187Z,78033.98
2018-11-23T09:19:04.322Z,78031.98
2018-11-23T09:21:31.353Z,78026.98
2018-11-23T09:23:59.053Z,78022.98
2018-11-23T09:26:25.908Z,78024.98
2018-11-23T09:28:52.753Z,78023.98
2018-11-23T09:31:19.611Z,78023.98
2018-11-23T09:33:48.806Z,78022.98
2018-11-23T09:36:16.738Z,78027.98
2018-11-23T09:38:44.407Z,78031.98
2018-11-23T09:41:12.641Z,78028.98
2018-11-23T09:43:39.643Z,78029.98
2018-11-23T09:46:08.533Z,78024.98
2018-11-23T09:48:35.394Z,78016.97
2018-11-23T09:51:02.276Z,78018.97
2018-11-23T09:53:29.313Z,78015.97
2018-11-23T09:55:56.159Z,78009.97
2018-11-23T09:58:23.952Z,78011.97
2018-11-23T10:00:50.924Z,78008.96
2018-11-23T10:03:17.865Z,78004.95
2018-11-23T10:05:45.873Z,77997.95
2018-11-23T10:08:12.734Z,77998.95
2018-11-23T10:10:39.685Z,77992.95
2018-11-23T10:13:06.856Z,77991.94
2018-11-23T10:15:33.971Z,77988.94
2018-11-23T10:18:02.143Z,77989.94
2018-11-23T10:20:29.401Z,77985.94
2018-11-23T10:22:56.275Z,77982.94
2018-11-23T10:25:24.486Z,77987.94
2018-11-23T10:27:51.408Z,77987.94
2018-11-23T10:30:24.332Z,77982.94
2018-11-23T10:32:52.416Z,77981.94
2018-11-23T10:35:19.286Z,77980.93
2018-11-23T10:37:48.671Z,77981.94
2018-11-23T10:40:16.807Z,77981.94
2018-11-23T10:42:44.053Z,77981.94
2018-11-23T10:45:11.904Z,77976.92
2018-11-23T10:47:38.898Z,77982.94
2018-11-23T10:50:07.164Z,77975.92
2018-11-23T10:52:34.065Z,77971.92
2018-11-23T10:55:00.911Z,77971.92
2018-11-23T10:57:28.819Z,77967.92
2018-11-23T10:59:58.715Z,77957.91
2018-11-23T11:02:31.229Z,77959.91
2018-11-23T11:05:03.893Z,77951.89
2018-11-23T11:07:30.919Z,77957.91
2018-11-23T11:09:57.889Z,77954.90
2018-11-23T11:12:24.893Z,77953.90
2018-11-23T11:14:52.686Z,77952.90
2018-11-23T11:17:19.553Z,77948.89
2018-11-23T11:19:47.377Z,77950.89
2018-11-23T11:22:16.204Z,77956.91
2018-11-23T11:24:44.089Z,77953.90
2018-11-23T11:27:11.027Z,77951.89
2018-11-23T11:29:38.025Z,77947.89
2018-11-23T11:32:04.889Z,77940.88
2018-11-23T11:34:31.769Z,77941.89
2018-11-23T11:36:58.605Z,77935.88
2018-11-23T11:39:26.395Z,77932.88
2018-11-23T11:41:53.492Z,77930.88
2018-11-23T11:44:21.548Z,77925.87
2018-11-23T11:46:48.726Z,77916.86
2018-11-23T11:49:16.530Z,77914.86
2018-11-23T11:51:43.584Z,77921.86
2018-11-23T11:54:10.555Z,77917.86
2018-11-23T11:56:37.599Z,77921.86
2018-11-23T11:59:04.750Z,77916.86
2018-11-23T12:01:32.002Z,77918.86
2018-11-23T12:03:59.759Z,77907.84
2018-11-23T12:06:27.548Z,77909.85
2018-11-23T12:08:54.407Z,77913.86
2018-11-23T12:11:22.357Z,77907.84
2018-11-23T12:13:49.186Z,77906.84
2018-11-23T12:16:16.134Z,77899.84
2018-11-23T12:18:43.053Z,77902.84
2018-11-23T12:21:10.339Z,77896.84
2018-11-23T12:23:37.280Z,77897.84
2018-11-23T12:26:04.327Z,77895.84
2018-11-23T12:28:31.266Z,77896.84
2018-11-23T12:30:59.071Z,77891.83
2018-11-23T12:33:25.978Z,77892.83
2018-11-23T12:35:54.338Z,77875.81
2018-11-23T12:38:21.206Z,77883.83
2018-11-23T12:40:48.041Z,77883.83
2018-11-23T12:43:15.478Z,77888.83
2018-11-23T12:45:42.327Z,77888.83
2018-11-23T12:48:10.187Z,77891.83
2018-11-23T12:50:37.022Z,77891.83
2018-11-23T12:53:06.457Z,77906.84
2018-11-23T12:55:31.873Z,77967.92
2018-11-23T12:57:58.740Z,77906.84
2018-11-23T13:00:27.735Z,77888.83
2018-11-23T13:02:56.913Z,77880.82
2018-11-23T13:05:25.733Z,77871.81
2018-11-23T13:07:54.305Z,77864.80
2018-11-23T13:10:21.997Z,77860.80
2018-11-23T13:12:50.927Z,77866.80
2018-11-23T13:15:16.685Z,77854.79
2018-11-23T13:17:43.591Z,77851.78
2018-11-23T13:20:12.799Z,77859.80
2018-11-23T13:22:39.759Z,77863.80
2018-11-23T13:25:08.520Z,77855.79
2018-11-23T13:27:35.375Z,77859.80
2018-11-23T13:30:03.114Z,77859.80
2018-11-23T13:32:30.926Z,77864.80
2018-11-23T13:34:57.802Z,77862.80
2018-11-23T13:37:25.621Z,77860.80
2018-11-23T13:39:52.455Z,77860.80
2018-11-23T13:42:20.392Z,77866.80
2018-11-23T13:44:47.347Z,77864.80
2018-11-23T13:47:14.209Z,77871.81
2018-11-23T13:49:41.039Z,77901.84
2018-11-23T13:52:07.893Z,77971.92
2018-11-23T13:54:34.747Z,77977.93
2018-11-23T13:57:01.813Z,77988.94
2018-11-23T13:59:28.637Z,77930.88
2018-11-23T14:01:55.513Z,77900.84
2018-11-23T14:04:22.400Z,77919.86
2018-11-23T14:06:49.258Z,77889.83
2018-11-23T14:09:16.793Z,77883.83
2018-11-23T14:11:43.639Z,77875.81
2018-11-23T14:14:11.089Z,77874.81
2018-11-23T14:16:38.027Z,77876.81
2018-11-23T14:19:05.044Z,77890.83
2018-11-23T14:21:32.839Z,77891.83
2018-11-23T14:24:00.150Z,77867.80
2018-11-23T14:26:27.041Z,77858.80
2018-11-23T14:28:53.924Z,77863.80
2018-11-23T14:31:20.833Z,77860.80
2018-11-23T14:33:47.739Z,77855.79
2018-11-23T14:36:14.605Z,77853.79
2018-11-23T14:38:42.010Z,77853.79
2018-11-23T14:41:08.916Z,77851.78
2018-11-23T14:43:35.793Z,77843.78
2018-11-23T14:46:02.668Z,77836.77
2018-11-23T14:48:29.537Z,77834.77
2018-11-23T14:50:56.420Z,77837.77
2018-11-23T14:53:23.305Z,77839.77
2018-11-23T14:55:50.157Z,77826.76
2018-11-23T14:58:17.011Z,77825.76
2018-11-23T15:00:43.845Z,77824.76
2018-11-23T15:03:10.666Z,77825.76
2018-11-23T15:05:38.160Z,77824.76
2018-11-23T15:08:05.229Z,77829.77
2018-11-23T15:10:33.026Z,77821.75
2018-11-23T15:13:01.603Z,77827.77
2018-11-23T15:15:30.759Z,77827.77
2018-11-23T15:17:58.419Z,77832.77
2018-11-23T15:20:27.162Z,77832.77
2018-11-23T15:22:56.783Z,77819.75
2018-11-23T15:25:23.682Z,77819.75
2018-11-23T15:27:50.563Z,77812.74
2018-11-23T15:30:19.581Z,77820.75
2018-11-23T15:32:48.510Z,77818.75
2018-11-23T15:35:16.687Z,77814.75
2018-11-23T15:37:43.576Z,77813.75
2018-11-23T15:40:16.984Z,77807.73
2018-11-23T15:42:44.297Z,77811.74
2018-11-23T15:45:13.261Z,77813.75
2018-11-23T15:47:40.115Z,77815.75
2018-11-23T15:50:07.737Z,77812.74
2018-11-23T15:52:34.574Z,77810.74
2018-11-23T15:55:01.408Z,77807.73
2018-11-23T15:57:29.081Z,77804.73
2018-11-23T15:59:56.711Z,77801.73
2018-11-23T16:02:23.559Z,77800.73
2018-11-23T16:04:50.518Z,77798.73
2018-11-23T16:07:17.416Z,77796.73
2018-11-23T16:09:44.265Z,77797.73
2018-11-23T16:12:12.023Z,77795.73
2018-11-23T16:14:39.960Z,77792.72
2018-11-23T16:17:07.754Z,77785.72
2018-11-23T16:19:34.664Z,77781.71
2018-11-23T16:22:01.671Z,77786.72
2018-11-23T16:24:28.483Z,77785.72
2018-11-23T16:26:55.325Z,77791.72
2018-11-23T16:29:24.114Z,77790.72
2018-11-23T16:31:50.928Z,77787.72
2018-11-23T16:34:17.809Z,77781.71
2018-11-23T16:36:45.547Z,77779.71
2018-11-23T16:39:13.090Z,77781.71
2018-11-23T16:41:40.041Z,77780.71
2018-11-23T16:44:07.092Z,77781.71
2018-11-23T16:46:33.993Z,77784.72
2018-11-23T16:49:00.903Z,77784.72
2018-11-23T16:51:27.842Z,77782.71
2018-11-23T16:53:56.082Z,77772.70
2018-11-23T16:56:23.111Z,77779.71
2018-11-23T16:58:50.170Z,77775.70
2018-11-23T17:01:17.423Z,77776.70
2018-11-23T17:03:46.512Z,77778.70
2018-11-23T17:06:14.488Z,77780.71
2018-11-23T17:08:42.581Z,77777.70
2018-11-23T17:11:09.721Z,77773.70
2018-11-23T17:13:37.889Z,77780.71
2018-11-23T17:16:06.581Z,77777.70
2018-11-23T17:18:34.386Z,77779.71
2018-11-23T17:21:01.238Z,77768.70
2018-11-23T17:23:28.094Z,77769.70
2018-11-23T17:25:55.591Z,77769.70
2018-11-23T17:28:22.489Z,77769.70
2018-11-23T17:30:49.318Z,77766.69
2018-11-23T17:33:16.785Z,77771.70
2018-11-23T17:35:43.722Z,77767.70
2018-11-23T17:38:10.608Z,77766.69
2018-11-23T17:40:38.860Z,77763.69
2018-11-23T17:43:05.748Z,77764.69
2018-11-23T17:45:33.138Z,77769.70
2018-11-23T17:48:00.238Z,77763.69
2018-11-23T17:50:28.352Z,77748.67
2018-11-23T17:52:56.117Z,77751.67
2018-11-23T17:55:23.805Z,77748.67
2018-11-23T17:57:51.385Z,77733.66
2018-11-23T18:00:20.066Z,77739.66
2018-11-23T18:02:47.442Z,77746.67
2018-11-23T18:05:15.887Z,77751.67
2018-11-23T18:07:43.516Z,77735.66
2018-11-23T18:10:12.336Z,77734.66
2018-11-23T18:12:39.125Z,77729.66
2018-11-23T18:15:08.908Z,77727.66
2018-11-23T18:17:36.575Z,77723.65
2018-11-23T18:20:05.822Z,77718.64
2018-11-23T18:22:33.704Z,77717.64
2018-11-23T18:25:01.367Z,77717.64
2018-11-23T18:27:29.131Z,77718.64
2018-11-23T18:29:55.961Z,77719.64
2018-11-23T18:32:22.934Z,77721.64
2018-11-23T18:34:50.968Z,77725.66
2018-11-23T18:37:18.425Z,77728.66
2018-11-23T18:39:48.138Z,77726.66
2018-11-23T18:42:16.876Z,77722.65
2018-11-23T18:44:46.193Z,77714.64
2018-11-23T18:47:15.659Z,77708.63
2018-11-23T18:49:42.627Z,77705.63
2018-11-23T18:52:10.385Z,77710.64
2018-11-23T18:54:38.231Z,77715.64
2018-11-23T18:57:05.076Z,77718.64
2018-11-23T18:59:32.048Z,77718.64
2018-11-23T19:01:59.249Z,77713.64
2018-11-23T19:04:28.109Z,77719.64
2018-11-23T19:06:56.867Z,77717.64
2018-11-23T19:09:24.312Z,77714.64
2018-11-23T19:11:51.121Z,77706.63
2018-11-23T19:14:18.893Z,77699.63
2018-11-23T19:16:46.737Z,77695.63
2018-11-23T19:19:13.960Z,77700.63
2018-11-23T19:21:42.256Z,77701.63
2018-11-23T19:24:09.476Z,77701.63
2018-11-23T19:26:38.783Z,77698.63
2018-11-23T19:29:06.900Z,77698.63
2018-11-23T19:31:34.322Z,77686.61
2018-11-23T19:34:01.199Z,77685.61
2018-11-23T19:36:28.170Z,77682.61
2018-11-23T19:38:55.062Z,77680.61
2018-11-23T19:41:21.994Z,77678.60
2018-11-23T19:43:48.891Z,77677.60
2018-11-23T19:46:16.472Z,77677.60
2018-11-23T19:48:43.410Z,77677.60
2018-11-23T19:51:11.322Z,77666.59
2018-11-23T19:53:38.218Z,77659.58
2018-11-23T19:56:05.239Z,77660.58
2018-11-23T19:58:32.188Z,77655.58
2018-11-23T20:00:58.999Z,77653.58
2018-11-23T20:03:25.844Z,77659.58
2018-11-23T20:05:52.681Z,77656.58
2018-11-23T20:08:19.557Z,77653.58
2018-11-23T20:10:47.153Z,77655.58
2018-11-23T20:13:13.986Z,77644.56
2018-11-23T20:15:40.940Z,77640.56
2018-11-23T20:18:07.906Z,77638.56
2018-11-23T20:20:35.582Z,77637.56
2018-11-23T20:23:02.486Z,77643.56
2018-11-23T20:25:29.383Z,77639.56
2018-11-23T20:27:56.366Z,77635.55
2018-11-23T20:30:23.217Z,77629.55
2018-11-23T20:32:50.015Z,77628.55
2018-11-23T20:35:18.248Z,77628.55
2018-11-23T20:37:46.251Z,77627.55
2018-11-23T20:40:14.436Z,77631.55
2018-11-23T20:42:41.305Z,77619.54
2018-11-23T20:45:09.740Z,77618.54
2018-11-23T20:47:36.577Z,77613.53
2018-11-23T20:50:04.239Z,77613.53
2018-11-23T20:52:31.905Z,77615.53
2018-11-23T20:54:58.741Z,77622.55
2018-11-23T20:57:26.382Z,77618.54
2018-11-23T20:59:53.204Z,77611.53
2018-11-23T21:02:20.061Z,77611.53
2018-11-23T21:04:46.896Z,77611.53
2018-11-23T21:07:15.984Z,77604.52
2018-11-23T21:09:42.833Z,77612.53
2018-11-23T21:12:09.645Z,77613.53
2018-11-23T21:14:37.944Z,77605.53
2018-11-23T21:17:05.796Z,77606.53
2018-11-23T21:19:32.582Z,77605.53
2018-11-23T21:21:59.393Z,77603.52
2018-11-23T21:24:27.174Z,77600.52
2018-11-23T21:26:54.021Z,77607.53
2018-11-23T21:29:20.890Z,77607.53
2018-11-23T21:31:48.808Z,77601.52
2018-11-23T21:34:15.911Z,77607.53
2018-11-23T21:36:42.785Z,77605.53
2018-11-23T21:39:13.774Z,77600.52
2018-11-23T21:41:38.244Z,77598.52
2018-11-23T21:44:05.226Z,77595.52
2018-11-23T21:46:32.149Z,77578.50
2018-11-23T21:48:59.159Z,77583.50
2018-11-23T21:51:26.943Z,77588.51
2018-11-23T21:53:54.617Z,77594.52
2018-11-23T21:56:21.446Z,77601.52
2018-11-23T21:58:48.299Z,77605.53
2018-11-23T22:01:16.411Z,77606.53
2018-11-23T22:03:45.441Z,77607.53
2018-11-23T22:06:12.433Z,77607.53
2018-11-23T22:08:39.265Z,77606.53
2018-11-23T22:11:06.115Z,77610.53
2018-11-23T22:13:32.937Z,77616.54
2018-11-23T22:15:59.782Z,77610.53
2018-11-23T22:18:26.644Z,77615.53
2018-11-23T22:20:53.525Z,77609.53
2018-11-23T22:23:20.523Z,77610.53
2018-11-23T22:25:47.598Z,77609.53
2018-11-23T22:28:15.859Z,77607.53
2018-11-23T22:30:42.905Z,77609.53
2018-11-23T22:33:10.615Z,77608.53
2018-11-23T22:35:38.555Z,77605.53
2018-11-23T22:38:05.550Z,77605.53
2018-11-23T22:40:33.351Z,77604.52
2018-11-23T22:43:00.217Z,77602.52
2018-11-23T22:45:27.175Z,77608.53
2018-11-23T22:47:54.020Z,77599.52
2018-11-23T22:50:21.340Z,77599.52
2018-11-23T22:52:48.195Z,77595.52
2018-11-23T22:55:15.909Z,77597.52
2018-11-23T22:57:43.263Z,77595.52
2018-11-23T23:00:17.348Z,77594.52
2018-11-23T23:02:45.389Z,77592.52
2018-11-23T23:05:12.219Z,77585.51
2018-11-23T23:07:39.940Z,77578.50
2018-11-23T23:10:07.430Z,77571.48
2018-11-23T23:12:34.825Z,77577.50
2018-11-23T23:15:02.661Z,77581.50
2018-11-23T23:17:29.560Z,77585.51
2018-11-23T23:19:57.428Z,77587.51
2018-11-23T23:22:24.266Z,77580.50
2018-11-23T23:24:51.184Z,77576.50
2018-11-23T23:27:18.954Z,77579.50
2018-11-23T23:29:46.880Z,77583.50
2018-11-23T23:32:14.509Z,77585.51
2018-11-23T23:34:42.543Z,77576.50
2018-11-23T23:37:09.360Z,77577.50
2018-11-23T23:39:36.379Z,77575.49
2018-11-23T23:42:04.830Z,77575.49
2018-11-23T23:44:32.501Z,77568.48
2018-11-23T23:47:00.367Z,77567.48
2018-11-23T23:49:28.068Z,77561.48
2018-11-23T23:51:54.907Z,77558.48
2018-11-23T23:54:22.759Z,77555.47
2018-11-23T23:56:50.657Z,77554.47
2018-11-23T23:59:17.591Z,77555.47
